createdAt,value
2019-02-04T00:01:26.467Z,101837.98
2019-02-04T00:03:55.989Z,101836.35
2019-02-04T00:06:25.433Z,101835.30
2019-02-04T00:08:54.749Z,101831.69
2019-02-04T00:11:24.117Z,101826.16
2019-02-04T00:13:53.401Z,101824.88
2019-02-04T00:16:22.712Z,101823.00
2019-02-04T00:18:52.067Z,101827.94
2019-02-04T00:21:21.406Z,101822.35
2019-02-04T00:23:50.682Z,101823.55
2019-02-04T00:26:19.963Z,101831.44
2019-02-04T00:28:49.333Z,101834.06
2019-02-04T00:31:19.026Z,101840.80
2019-02-04T00:33:48.481Z,101839.63
2019-02-04T00:36:17.829Z,101849.21
2019-02-04T00:38:47.311Z,101847.83
2019-02-04T00:41:16.684Z,101847.03
2019-02-04T00:43:45.967Z,101847.55
2019-02-04T00:46:15.443Z,101840.55
2019-02-04T00:48:44.818Z,101839.38
2019-02-04T00:51:14.168Z,101845.14
2019-02-04T00:53:43.547Z,101852.70
2019-02-04T00:56:12.888Z,101853.05
2019-02-04T00:58:42.189Z,101854.75
2019-02-04T01:01:11.940Z,101864.12
2019-02-04T01:03:41.548Z,101866.20
2019-02-04T01:06:10.918Z,101874.09
2019-02-04T01:08:40.624Z,101870.23
2019-02-04T01:11:10.106Z,101870.58
2019-02-04T01:13:39.637Z,101868.83
2019-02-04T01:16:08.939Z,101872.61
2019-02-04T01:18:38.436Z,101874.38
2019-02-04T01:21:07.874Z,101872.22
2019-02-04T01:23:37.583Z,101877.57
2019-02-04T01:26:07.052Z,101880.55
2019-02-04T01:28:36.798Z,101879.86
2019-02-04T01:31:06.047Z,101879.91
2019-02-04T01:33:35.419Z,101885.05
2019-02-04T01:36:04.950Z,101885.42
2019-02-04T01:38:34.379Z,101896.16
2019-02-04T01:41:04.047Z,101891.20
2019-02-04T01:43:33.525Z,101894.64
2019-02-04T01:46:02.869Z,101895.36
2019-02-04T01:48:32.190Z,101891.83
2019-02-04T01:51:01.739Z,101895.00
2019-02-04T01:53:31.051Z,101896.45
2019-02-04T01:56:00.496Z,101902.27
2019-02-04T01:58:29.817Z,101900.69
2019-02-04T02:00:59.124Z,101908.91
2019-02-04T02:03:28.404Z,101905.05
2019-02-04T02:05:57.767Z,101908.48
2019-02-04T02:08:27.091Z,101912.49
2019-02-04T02:10:57.168Z,101911.97
2019-02-04T02:13:26.773Z,101913.14
2019-02-04T02:15:56.488Z,101912.18
2019-02-04T02:18:25.834Z,101915.13
2019-02-04T02:20:55.146Z,101909.13
2019-02-04T02:23:24.406Z,101906.45
2019-02-04T02:25:54.045Z,101902.83
2019-02-04T02:28:23.662Z,101912.13
2019-02-04T02:30:52.863Z,101913.56
2019-02-04T02:33:22.220Z,101913.56
2019-02-04T02:35:51.574Z,101909.29
2019-02-04T02:38:20.902Z,101903.47
2019-02-04T02:40:50.550Z,101900.94
2019-02-04T02:43:19.860Z,101905.84
2019-02-04T02:45:49.040Z,101903.36
2019-02-04T02:48:18.627Z,101896.84
2019-02-04T02:50:47.856Z,101894.55
2019-02-04T02:53:17.173Z,101892.42
2019-02-04T02:55:46.412Z,101887.05
2019-02-04T02:58:15.718Z,101890.87
2019-02-04T03:00:45.032Z,101890.78
2019-02-04T03:03:14.417Z,101890.52
2019-02-04T03:05:43.674Z,101907.82
2019-02-04T03:08:13.271Z,101911.04
2019-02-04T03:10:42.497Z,101902.94
2019-02-04T03:13:11.733Z,101904.81
2019-02-04T03:15:41.030Z,101908.93
2019-02-04T03:18:10.209Z,101909.92
2019-02-04T03:20:39.434Z,101916.87
2019-02-04T03:23:08.940Z,101921.19
2019-02-04T03:25:38.261Z,101924.57
2019-02-04T03:28:07.572Z,101921.55
2019-02-04T03:30:36.730Z,101926.55
2019-02-04T03:33:06.108Z,101928.45
2019-02-04T03:35:35.396Z,101928.86
2019-02-04T03:38:04.727Z,101932.14
2019-02-04T03:40:34.240Z,101930.83
2019-02-04T03:43:03.609Z,101930.44
2019-02-04T03:45:32.882Z,101915.60
2019-02-04T03:48:07.096Z,101922.38
2019-02-04T03:50:33.790Z,101918.88
2019-02-04T03:53:03.043Z,101919.23
2019-02-04T03:55:32.430Z,101920.52
2019-02-04T03:58:02.191Z,101924.54
2019-02-04T04:00:34.192Z,101921.56
2019-02-04T04:03:03.408Z,101927.02
2019-02-04T04:05:32.692Z,101935.31
2019-02-04T04:08:01.919Z,101929.99
2019-02-04T04:10:31.288Z,101930.25
2019-02-04T04:13:00.550Z,101921.84
2019-02-04T04:15:29.856Z,101926.37
2019-02-04T04:17:59.510Z,101928.74
2019-02-04T04:20:28.773Z,101929.97
2019-02-04T04:22:58.225Z,101921.23
2019-02-04T04:25:30.918Z,101932.10
2019-02-04T04:28:00.383Z,101925.13
2019-02-04T04:30:29.922Z,101926.03
2019-02-04T04:33:00.329Z,101923.67
2019-02-04T04:35:29.683Z,101919.55
2019-02-04T04:37:58.994Z,101920.39
2019-02-04T04:40:28.739Z,101913.44
2019-02-04T04:42:58.117Z,101910.02
2019-02-04T04:45:27.664Z,101909.88
2019-02-04T04:47:56.871Z,101909.50
2019-02-04T04:50:26.192Z,101906.20
2019-02-04T04:52:56.697Z,101902.84
2019-02-04T04:55:28.778Z,101897.47
2019-02-04T04:57:58.498Z,101898.19
2019-02-04T05:00:29.898Z,101894.52
2019-02-04T05:02:59.314Z,101903.97
2019-02-04T05:05:28.824Z,101902.62
2019-02-04T05:07:58.199Z,101895.88
2019-02-04T05:10:27.427Z,101901.52
2019-02-04T05:12:56.783Z,101898.16
2019-02-04T05:15:27.251Z,101890.83
2019-02-04T05:17:56.887Z,101895.63
2019-02-04T05:20:26.106Z,101892.14
2019-02-04T05:22:55.679Z,101896.84
2019-02-04T05:25:25.827Z,101893.38
2019-02-04T05:27:55.513Z,101892.31
2019-02-04T05:30:25.600Z,101893.58
2019-02-04T05:32:54.932Z,101906.46
2019-02-04T05:35:24.380Z,101906.72
2019-02-04T05:37:53.729Z,101906.14
2019-02-04T05:40:23.010Z,101913.02
2019-02-04T05:42:52.730Z,101908.81
2019-02-04T05:45:22.563Z,101903.70
2019-02-04T05:47:51.993Z,101900.02
2019-02-04T05:50:21.688Z,101913.14
2019-02-04T05:52:51.951Z,101905.38
2019-02-04T05:55:23.194Z,101905.16
2019-02-04T05:57:52.425Z,101902.33
2019-02-04T06:00:29.147Z,101905.04
2019-02-04T06:02:58.557Z,101904.57
2019-02-04T06:05:27.896Z,101905.72
2019-02-04T06:07:57.103Z,101907.42
2019-02-04T06:10:26.536Z,101908.95
2019-02-04T06:12:56.427Z,101908.60
2019-02-04T06:15:26.154Z,101909.55
2019-02-04T06:17:55.821Z,101910.48
2019-02-04T06:20:25.663Z,101913.36
2019-02-04T06:22:55.785Z,101918.50
2019-02-04T06:25:25.083Z,101920.92
2019-02-04T06:27:54.349Z,101916.00
2019-02-04T06:30:23.736Z,101920.71
2019-02-04T06:32:54.087Z,101915.31
2019-02-04T06:35:24.226Z,101912.89
2019-02-04T06:37:53.736Z,101910.09
2019-02-04T06:40:23.142Z,101901.00
2019-02-04T06:42:52.466Z,101909.58
2019-02-04T06:45:27.456Z,101902.02
2019-02-04T06:47:56.773Z,101906.86
2019-02-04T06:50:26.531Z,101905.28
2019-02-04T06:52:55.923Z,101911.94
2019-02-04T06:55:30.399Z,101907.91
2019-02-04T06:57:59.692Z,101910.83
2019-02-04T07:00:28.955Z,101906.62
2019-02-04T07:02:59.485Z,101906.28
2019-02-04T07:05:29.185Z,101903.53
2019-02-04T07:07:58.790Z,101905.44
2019-02-04T07:10:28.373Z,101907.05
2019-02-04T07:12:57.758Z,101907.57
2019-02-04T07:15:27.080Z,101913.56
2019-02-04T07:18:01.582Z,101908.43
2019-02-04T07:20:28.862Z,101910.97
2019-02-04T07:22:58.615Z,101901.47
2019-02-04T07:25:27.980Z,101906.78
2019-02-04T07:27:57.589Z,101906.28
2019-02-04T07:30:27.521Z,101905.13
2019-02-04T07:32:58.061Z,101906.48
2019-02-04T07:35:27.844Z,101907.92
2019-02-04T07:37:57.503Z,101901.81
2019-02-04T07:40:28.841Z,101896.97
2019-02-04T07:42:59.002Z,101894.23
2019-02-04T07:45:28.528Z,101894.62
2019-02-04T07:47:58.255Z,101886.97
2019-02-04T07:50:27.665Z,101885.94
2019-02-04T07:52:57.394Z,101880.56
2019-02-04T07:55:28.032Z,101879.15
2019-02-04T07:57:57.746Z,101878.33
2019-02-04T08:00:30.205Z,101879.45
2019-02-04T08:02:59.916Z,101881.86
2019-02-04T08:05:29.576Z,101892.64
2019-02-04T08:07:58.896Z,101892.06
2019-02-04T08:10:28.597Z,101895.80
2019-02-04T08:13:01.451Z,101894.74
2019-02-04T08:15:35.355Z,101899.17
2019-02-04T08:18:05.156Z,101901.92
2019-02-04T08:20:34.461Z,101899.17
2019-02-04T08:23:04.242Z,101907.95
2019-02-04T08:25:33.920Z,101907.83
2019-02-04T08:28:03.207Z,101910.37
2019-02-04T08:30:34.330Z,101909.30
2019-02-04T08:33:03.782Z,101912.98
2019-02-04T08:35:33.292Z,101908.46
2019-02-04T08:38:02.749Z,101918.16
2019-02-04T08:40:32.116Z,101919.13
2019-02-04T08:43:01.546Z,101909.43
2019-02-04T08:45:31.180Z,101913.95
2019-02-04T08:48:00.581Z,101902.94
2019-02-04T08:50:30.146Z,101898.98
2019-02-04T08:52:59.471Z,101899.94
2019-02-04T08:55:28.977Z,101898.63
2019-02-04T08:57:58.308Z,101888.42
2019-02-04T09:00:27.804Z,101883.38
2019-02-04T09:02:57.930Z,101890.08
2019-02-04T09:05:27.328Z,101880.37
2019-02-04T09:07:56.811Z,101885.97
2019-02-04T09:10:31.631Z,101878.89
2019-02-04T09:13:01.431Z,101871.77
2019-02-04T09:15:30.732Z,101869.34
2019-02-04T09:18:00.867Z,101867.95
2019-02-04T09:20:30.148Z,101862.48
2019-02-04T09:22:59.527Z,101860.91
2019-02-04T09:25:28.993Z,101862.07
2019-02-04T09:27:58.600Z,101863.83
2019-02-04T09:30:28.485Z,101861.16
2019-02-04T09:32:59.561Z,101861.35
2019-02-04T09:35:28.957Z,101862.11
2019-02-04T09:38:03.588Z,101857.85
2019-02-04T09:40:36.202Z,101850.22
2019-02-04T09:43:05.643Z,101853.05
2019-02-04T09:45:36.285Z,101843.13
2019-02-04T09:48:08.719Z,101846.02
2019-02-04T09:50:42.599Z,101833.66
2019-02-04T09:53:12.341Z,101829.38
2019-02-04T09:55:46.072Z,101834.22
2019-02-04T09:58:16.375Z,101827.13
2019-02-04T10:00:45.797Z,101837.04
2019-02-04T10:03:16.177Z,101833.86
2019-02-04T10:05:45.983Z,101833.08
2019-02-04T10:08:15.517Z,101837.78
2019-02-04T10:10:45.298Z,101827.18
2019-02-04T10:13:22.200Z,101832.69
2019-02-04T10:15:51.775Z,101831.30
2019-02-04T10:18:30.246Z,101828.91
2019-02-04T10:21:01.402Z,101834.92
2019-02-04T10:23:32.701Z,101832.27
2019-02-04T10:26:03.804Z,101826.59
2019-02-04T10:28:33.252Z,101828.97
2019-02-04T10:31:18.035Z,101822.21
2019-02-04T10:34:12.295Z,101830.50
2019-02-04T10:36:44.477Z,101823.17
2019-02-04T10:39:15.681Z,101827.90
2019-02-04T10:41:47.199Z,101822.77
2019-02-04T10:44:16.394Z,101828.52
2019-02-04T10:46:45.909Z,101821.81
2019-02-04T10:49:34.810Z,101807.61
2019-02-04T10:52:08.108Z,101806.40
2019-02-04T10:54:37.461Z,101812.50
2019-02-04T10:57:10.815Z,101801.64
2019-02-04T10:59:55.389Z,101799.91
2019-02-04T11:02:26.304Z,101800.61
2019-02-04T11:05:46.478Z,101799.41
2019-02-04T11:08:23.392Z,101795.26
2019-02-04T11:10:09.721Z,101791.06
2019-02-04T11:12:42.104Z,101788.05
2019-02-04T11:15:14.863Z,101787.78
2019-02-04T11:17:50.230Z,101786.36
2019-02-04T11:20:19.067Z,101786.25
2019-02-04T11:22:48.344Z,101781.73
2019-02-04T11:25:19.413Z,101784.54
2019-02-04T11:27:49.141Z,101788.97
2019-02-04T11:30:51.046Z,101785.55
2019-02-04T11:33:20.653Z,101789.34
2019-02-04T11:35:50.435Z,101782.62
2019-02-04T11:38:20.403Z,101787.09
2019-02-04T11:40:49.791Z,101782.06
2019-02-04T11:43:19.056Z,101781.73
2019-02-04T11:45:48.668Z,101781.82
2019-02-04T11:48:18.700Z,101782.75
2019-02-04T11:50:47.990Z,101774.45
2019-02-04T11:53:17.418Z,101781.95
2019-02-04T11:55:47.113Z,101778.02
2019-02-04T11:58:16.451Z,101771.80
2019-02-04T12:00:45.850Z,101769.50
2019-02-04T12:03:16.286Z,101766.66
2019-02-04T12:05:45.517Z,101762.48
2019-02-04T12:08:16.658Z,101764.22
2019-02-04T12:10:52.226Z,101751.31
2019-02-04T12:13:21.562Z,101749.98
2019-02-04T12:15:51.135Z,101747.14
2019-02-04T12:18:20.443Z,101746.13
2019-02-04T12:20:49.795Z,101740.67
2019-02-04T12:23:19.914Z,101742.39
2019-02-04T12:25:49.340Z,101732.08
2019-02-04T12:28:18.572Z,101735.09
2019-02-04T12:30:47.904Z,101730.81
2019-02-04T12:33:18.086Z,101731.28
2019-02-04T12:35:47.453Z,101730.44
2019-02-04T12:38:17.106Z,101727.28
2019-02-04T12:40:46.506Z,101732.08
2019-02-04T12:43:15.830Z,101736.08
2019-02-04T12:45:45.471Z,101732.08
2019-02-04T12:48:14.897Z,101732.12
2019-02-04T12:50:44.413Z,101729.11
2019-02-04T12:53:13.957Z,101723.31
2019-02-04T12:55:43.151Z,101731.13
2019-02-04T12:58:12.867Z,101725.16
2019-02-04T13:00:42.323Z,101720.50
2019-02-04T13:03:11.743Z,101713.00
2019-02-04T13:05:52.435Z,101716.80
2019-02-04T13:08:21.856Z,101711.81
2019-02-04T13:10:51.136Z,101713.44
2019-02-04T13:13:22.336Z,101719.36
2019-02-04T13:15:51.736Z,101711.65
2019-02-04T13:18:21.151Z,101712.21
2019-02-04T13:20:50.525Z,101713.37
2019-02-04T13:23:19.956Z,101705.66
2019-02-04T13:25:49.219Z,101700.64
2019-02-04T13:28:22.515Z,101700.28
2019-02-04T13:31:10.904Z,101696.78
2019-02-04T13:33:41.564Z,101697.87
2019-02-04T13:36:10.901Z,101696.69
2019-02-04T13:38:40.195Z,101692.52
2019-02-04T13:41:10.319Z,101695.48
2019-02-04T13:43:40.575Z,101690.33
2019-02-04T13:46:09.980Z,101687.48
2019-02-04T13:48:39.300Z,101682.28
2019-02-04T13:51:30.359Z,101685.53
2019-02-04T13:53:58.782Z,101680.70
2019-02-04T13:56:28.263Z,101679.55
2019-02-04T13:58:57.539Z,101677.67
2019-02-04T14:01:27.003Z,101682.33
2019-02-04T14:03:56.299Z,101680.14
2019-02-04T14:06:25.997Z,101679.76
2019-02-04T14:08:55.429Z,101673.13
2019-02-04T14:11:24.750Z,101672.45
2019-02-04T14:13:53.997Z,101674.86
2019-02-04T14:16:23.429Z,101668.50
2019-02-04T14:18:52.776Z,101668.81
2019-02-04T14:21:22.619Z,101659.20
2019-02-04T14:23:51.969Z,101661.03
2019-02-04T14:26:21.380Z,101658.16
2019-02-04T14:28:50.809Z,101653.70
2019-02-04T14:31:20.185Z,101648.15
2019-02-04T14:33:49.553Z,101640.33
2019-02-04T14:36:19.032Z,101641.98
2019-02-04T14:38:48.411Z,101642.80
2019-02-04T14:41:36.762Z,101650.34
2019-02-04T14:44:15.713Z,101648.70
2019-02-04T14:47:00.215Z,101648.55
2019-02-04T14:50:25.933Z,101643.14
2019-02-04T14:53:32.892Z,101648.81
2019-02-04T14:56:49.230Z,101638.41
2019-02-04T14:59:32.303Z,101638.58
2019-02-04T15:02:45.840Z,101633.58
2019-02-04T15:05:56.362Z,101630.25
2019-02-04T15:09:15.431Z,101629.58
2019-02-04T15:12:40.610Z,101629.20
2019-02-04T15:15:28.113Z,101629.85
2019-02-04T15:18:25.873Z,101625.03
2019-02-04T15:21:43.220Z,101628.82
2019-02-04T15:24:39.902Z,101616.03
2019-02-04T15:27:55.767Z,101615.16
2019-02-04T15:30:35.486Z,101610.80
2019-02-04T15:33:43.214Z,101597.23
2019-02-04T15:36:44.070Z,101596.98
2019-02-04T15:39:55.848Z,101589.19
2019-02-04T15:43:03.818Z,101582.30
2019-02-04T15:46:16.432Z,101577.91
2019-02-04T15:49:22.931Z,101579.92
2019-02-04T15:51:56.739Z,101579.73
2019-02-04T15:54:26.639Z,101575.05
2019-02-04T15:56:56.512Z,101576.80
2019-02-04T15:59:26.220Z,101577.16
2019-02-04T16:01:56.194Z,101585.42
2019-02-04T16:04:34.272Z,101583.14
2019-02-04T16:07:05.391Z,101579.16
2019-02-04T16:09:35.159Z,101575.64
2019-02-04T16:12:04.918Z,101587.69
2019-02-04T16:14:34.910Z,101589.20
2019-02-04T16:17:07.058Z,101580.97
2019-02-04T16:19:37.182Z,101579.13
2019-02-04T16:22:06.911Z,101585.89
2019-02-04T16:24:36.909Z,101577.31
2019-02-04T16:27:06.680Z,101578.26
2019-02-04T16:29:36.592Z,101578.58
2019-02-04T16:32:06.945Z,101582.63
2019-02-04T16:34:36.594Z,101585.31
2019-02-04T16:37:06.224Z,101589.58
2019-02-04T16:39:35.990Z,101589.69
2019-02-04T16:42:06.345Z,101598.45
2019-02-04T16:44:36.172Z,101604.60
2019-02-04T16:47:06.372Z,101608.52
2019-02-04T16:49:36.170Z,101602.16
2019-02-04T16:52:05.804Z,101601.41
2019-02-04T16:54:35.358Z,101603.95
2019-02-04T16:57:05.574Z,101617.48
2019-02-04T16:59:35.232Z,101614.38
2019-02-04T17:02:05.006Z,101609.81
2019-02-04T17:04:34.562Z,101611.78
2019-02-04T17:07:05.166Z,101607.03
2019-02-04T17:09:35.040Z,101601.73
2019-02-04T17:12:05.242Z,101603.27
2019-02-04T17:14:34.981Z,101595.22
2019-02-04T17:17:04.847Z,101597.77
2019-02-04T17:19:34.570Z,101590.41
2019-02-04T17:22:04.152Z,101593.37
2019-02-04T17:24:33.822Z,101588.69
2019-02-04T17:27:03.684Z,101572.67
2019-02-04T17:29:34.040Z,101577.72
2019-02-04T17:32:03.999Z,101583.73
2019-02-04T17:34:33.673Z,101589.72
2019-02-04T17:37:03.652Z,101581.02
2019-02-04T17:39:34.817Z,101579.30
2019-02-04T17:42:04.652Z,101584.93
2019-02-04T17:44:35.231Z,101575.64
2019-02-04T17:47:05.065Z,101574.70
2019-02-04T17:49:34.758Z,101574.52
2019-02-04T17:52:04.405Z,101563.58
2019-02-04T17:54:34.150Z,101558.56
2019-02-04T17:57:06.015Z,101569.53
2019-02-04T17:59:35.240Z,101573.44
2019-02-04T18:02:05.084Z,101569.65
2019-02-04T18:04:34.860Z,101581.14
2019-02-04T18:07:06.059Z,101574.38
2019-02-04T18:09:35.667Z,101577.52
2019-02-04T18:12:05.954Z,101579.14
2019-02-04T18:14:35.524Z,101570.31
2019-02-04T18:17:05.276Z,101576.22
2019-02-04T18:19:35.076Z,101570.53
2019-02-04T18:22:05.721Z,101573.83
2019-02-04T18:24:35.906Z,101566.25
2019-02-04T18:27:05.994Z,101564.55
2019-02-04T18:29:35.775Z,101567.86
2019-02-04T18:32:05.716Z,101566.42
2019-02-04T18:34:35.765Z,101565.96
2019-02-04T18:37:05.470Z,101570.20
2019-02-04T18:39:37.605Z,101560.56
2019-02-04T18:42:07.577Z,101560.25
2019-02-04T18:44:37.514Z,101561.87
2019-02-04T18:47:07.378Z,101562.90
2019-02-04T18:49:36.977Z,101566.17
2019-02-04T18:52:06.868Z,101558.53
2019-02-04T18:54:36.938Z,101560.25
2019-02-04T18:57:06.850Z,101564.42
2019-02-04T18:59:37.108Z,101564.65
2019-02-04T19:02:06.987Z,101566.06
2019-02-04T19:04:36.760Z,101569.72
2019-02-04T19:07:06.648Z,101562.25
2019-02-04T19:09:36.353Z,101568.20
2019-02-04T19:12:06.335Z,101569.66
2019-02-04T19:14:36.457Z,101564.45
2019-02-04T19:17:08.778Z,101571.00
2019-02-04T19:19:38.589Z,101579.06
2019-02-04T19:22:08.332Z,101576.61
2019-02-04T19:24:38.078Z,101565.80
2019-02-04T19:27:07.739Z,101562.47
2019-02-04T19:29:37.530Z,101549.45
2019-02-04T19:32:07.821Z,101561.59
2019-02-04T19:34:37.616Z,101554.42
2019-02-04T19:37:07.376Z,101552.02
2019-02-04T19:39:37.111Z,101545.28
2019-02-04T19:42:07.573Z,101544.27
2019-02-04T19:44:38.876Z,101541.03
2019-02-04T19:47:08.682Z,101538.64
2019-02-04T19:49:39.161Z,101540.91
2019-02-04T19:52:08.839Z,101546.41
2019-02-04T19:54:39.405Z,101555.63
2019-02-04T19:57:09.090Z,101556.47
2019-02-04T19:59:38.771Z,101556.66
2019-02-04T20:02:09.080Z,101562.61
2019-02-04T20:04:38.686Z,101568.76
2019-02-04T20:07:08.356Z,101570.09
2019-02-04T20:09:38.094Z,101581.70
2019-02-04T20:12:07.852Z,101584.38
2019-02-04T20:14:37.568Z,101580.86
2019-02-04T20:17:07.374Z,101585.39
2019-02-04T20:19:37.050Z,101585.98
2019-02-04T20:22:06.969Z,101597.60
2019-02-04T20:24:37.204Z,101591.77
2019-02-04T20:27:06.888Z,101593.72
2019-02-04T20:29:36.894Z,101592.59
2019-02-04T20:32:06.761Z,101593.34
2019-02-04T20:34:36.533Z,101593.43
2019-02-04T20:37:06.480Z,101585.59
2019-02-04T20:39:36.437Z,101580.56
2019-02-04T20:42:06.395Z,101584.00
2019-02-04T20:44:36.154Z,101587.04
2019-02-04T20:47:05.890Z,101599.99
2019-02-04T20:49:35.706Z,101600.26
2019-02-04T20:52:05.503Z,101602.66
2019-02-04T20:54:44.772Z,101601.72
2019-02-04T20:57:06.939Z,101603.28
2019-02-04T20:59:36.552Z,101607.26
2019-02-04T21:02:06.364Z,101596.22
2019-02-04T21:04:36.235Z,101594.76
2019-02-04T21:07:06.510Z,101597.52
2019-02-04T21:09:36.310Z,101603.37
2019-02-04T21:12:06.029Z,101601.02
2019-02-04T21:14:35.804Z,101620.36
2019-02-04T21:17:05.572Z,101619.20
2019-02-04T21:19:35.304Z,101621.42
2019-02-04T21:22:05.313Z,101619.38
2019-02-04T21:24:35.173Z,101609.30
2019-02-04T21:27:04.759Z,101610.94
2019-02-04T21:29:34.979Z,101618.31
2019-02-04T21:32:04.758Z,101621.64
2019-02-04T21:34:34.490Z,101630.53
2019-02-04T21:37:04.634Z,101625.78
2019-02-04T21:39:34.139Z,101625.44
2019-02-04T21:42:03.925Z,101631.82
2019-02-04T21:44:33.523Z,101640.27
2019-02-04T21:47:03.139Z,101629.73
2019-02-04T21:49:32.751Z,101633.63
2019-02-04T21:52:02.477Z,101634.31
2019-02-04T21:54:34.954Z,101638.53
2019-02-04T21:57:04.452Z,101638.78
2019-02-04T21:59:34.067Z,101635.25
2019-02-04T22:02:03.709Z,101623.92
2019-02-04T22:04:34.109Z,101629.78
2019-02-04T22:07:03.716Z,101629.63
2019-02-04T22:09:33.296Z,101631.27
2019-02-04T22:12:02.858Z,101624.33
2019-02-04T22:14:32.346Z,101621.34
2019-02-04T22:17:01.780Z,101621.34
2019-02-04T22:19:31.264Z,101618.05
2019-02-04T22:22:00.805Z,101618.02
2019-02-04T22:24:30.137Z,101615.97
2019-02-04T22:26:59.390Z,101620.02
2019-02-04T22:29:30.961Z,101619.91
2019-02-04T22:31:59.730Z,101627.22
2019-02-04T22:34:29.484Z,101623.92
2019-02-04T22:36:58.796Z,101615.58
2019-02-04T22:39:27.990Z,101613.04
2019-02-04T22:41:57.279Z,101615.36
2019-02-04T22:44:26.548Z,101613.84
2019-02-04T22:46:55.778Z,101616.22
2019-02-04T22:49:25.074Z,101620.88
2019-02-04T22:51:54.559Z,101634.41
2019-02-04T22:54:23.887Z,101630.58
2019-02-04T22:56:53.302Z,101637.34
2019-02-04T22:59:22.710Z,101641.52
2019-02-04T23:01:57.043Z,101649.34
2019-02-04T23:04:26.627Z,101642.56
2019-02-04T23:06:56.042Z,101655.17
2019-02-04T23:09:25.301Z,101662.20
2019-02-04T23:11:57.878Z,101644.97
2019-02-04T23:14:27.179Z,101637.25
2019-02-04T23:16:56.508Z,101633.23
2019-02-04T23:19:25.848Z,101631.15
2019-02-04T23:21:55.038Z,101626.53
2019-02-04T23:24:24.418Z,101638.97
2019-02-04T23:26:53.720Z,101638.97
2019-02-04T23:29:23.157Z,101647.80
2019-02-04T23:31:52.471Z,101649.20
2019-02-04T23:34:21.892Z,101639.45
2019-02-04T23:36:51.202Z,101636.78
2019-02-04T23:39:20.523Z,101642.44
2019-02-04T23:41:49.891Z,101648.48
2019-02-04T23:44:19.350Z,101657.77
2019-02-04T23:46:49.248Z,101639.30
2019-02-04T23:49:18.712Z,101653.73
2019-02-04T23:51:48.097Z,101652.20
2019-02-04T23:54:17.524Z,101650.45
2019-02-04T23:56:46.900Z,101659.72
2019-02-04T23:59:16.290Z,101655.75
